sensor_id;sensor_type;location;lat;lon;timestamp;temperature;humidity
46730;DHT22;32476;50.002;11.854;2024-03-07T00:00:07;-0.30;99.90
46730;DHT22;32476;50.002;11.854;2024-03-07T00:02:44;-0.40;99.90
46730;DHT22;32476;50.002;11.854;2024-03-07T00:05:12;-0.40;99.90
46730;DHT22;32476;50.002;11.854;2024-03-07T00:07:38;-0.40;99.90
46730;DHT22;32476;50.002;11.854;2024-03-07T00:10:05;-0.40;99.90
46730;DHT22;32476;50.002;11.854;2024-03-07T00:12:35;-0.40;99.90
46730;DHT22;32476;50.002;11.854;2024-03-07T00:15:08;-0.40;99.90
46730;DHT22;32476;50.002;11.854;2024-03-07T00:17:38;-0.50;99.90
46730;DHT22;32476;50.002;11.854;2024-03-07T00:20:05;-0.50;99.90
46730;DHT22;32476;50.002;11.854;2024-03-07T00:22:36;-0.60;99.90
46730;DHT22;32476;50.002;11.854;2024-03-07T00:25:04;-0.50;99.90
46730;DHT22;32476;50.002;11.854;2024-03-07T00:27:31;-0.60;99.90
46730;DHT22;32476;50.002;11.854;2024-03-07T00:29:58;-0.60;99.90
46730;DHT22;32476;50.002;11.854;2024-03-07T00:32:26;-0.60;99.90
46730;DHT22;32476;50.002;11.854;2024-03-07T00:34:55;-0.60;99.90
46730;DHT22;32476;50.002;11.854;2024-03-07T00:37:24;-0.60;99.90
46730;DHT22;32476;50.002;11.854;2024-03-07T00:39:54;-0.70;99.90
46730;DHT22;32476;50.002;11.854;2024-03-07T00:42:20;-0.60;99.90
46730;DHT22;32476;50.002;11.854;2024-03-07T00:44:48;-0.70;99.90
46730;DHT22;32476;50.002;11.854;2024-03-07T00:47:16;-0.70;99.90
46730;DHT22;32476;50.002;11.854;2024-03-07T00:49:44;-0.70;99.90
46730;DHT22;32476;50.002;11.854;2024-03-07T00:52:12;-0.80;99.90
46730;DHT22;32476;50.002;11.854;2024-03-07T00:54:40;-0.80;99.90
46730;DHT22;32476;50.002;11.854;2024-03-07T00:57:07;-0.80;99.90
46730;DHT22;32476;50.002;11.854;2024-03-07T00:59:33;-0.80;99.90
46730;DHT22;32476;50.002;11.854;2024-03-07T01:02:01;-0.80;99.90
46730;DHT22;32476;50.002;11.854;2024-03-07T01:04:27;-0.80;99.90
46730;DHT22;32476;50.002;11.854;2024-03-07T01:07:00;-0.90;99.90
46730;DHT22;32476;50.002;11.854;2024-03-07T01:09:28;-0.90;99.90
46730;DHT22;32476;50.002;11.854;2024-03-07T01:11:54;-0.90;99.90
46730;DHT22;32476;50.002;11.854;2024-03-07T01:14:21;-0.90;99.90
46730;DHT22;32476;50.002;11.854;2024-03-07T01:16:49;-0.90;99.90
46730;DHT22;32476;50.002;11.854;2024-03-07T01:19:16;-0.90;99.90
46730;DHT22;32476;50.002;11.854;2024-03-07T01:21:42;-0.90;99.90
46730;DHT22;32476;50.002;11.854;2024-03-07T01:24:09;-1.00;99.90
46730;DHT22;32476;50.002;11.854;2024-03-07T01:26:35;-0.90;99.90
46730;DHT22;32476;50.002;11.854;2024-03-07T01:29:01;-0.90;99.90
46730;DHT22;32476;50.002;11.854;2024-03-07T01:31:29;-0.90;99.90
46730;DHT22;32476;50.002;11.854;2024-03-07T01:33:55;-0.90;99.90
46730;DHT22;32476;50.002;11.854;2024-03-07T01:36:21;-0.90;99.90
46730;DHT22;32476;50.002;11.854;2024-03-07T01:38:48;-0.80;99.90
46730;DHT22;32476;50.002;11.854;2024-03-07T01:41:14;-0.80;99.90
46730;DHT22;32476;50.002;11.854;2024-03-07T01:43:41;-0.80;99.90
46730;DHT22;32476;50.002;11.854;2024-03-07T01:46:11;-0.80;99.90
46730;DHT22;32476;50.002;11.854;2024-03-07T01:48:38;-0.90;99.90
46730;DHT22;32476;50.002;11.854;2024-03-07T01:51:06;-0.90;99.90
46730;DHT22;32476;50.002;11.854;2024-03-07T01:53:34;-0.80;99.90
46730;DHT22;32476;50.002;11.854;2024-03-07T01:56:02;-0.90;99.90
46730;DHT22;32476;50.002;11.854;2024-03-07T01:58:29;-0.80;99.90
46730;DHT22;32476;50.002;11.854;2024-03-07T02:00:59;-0.90;99.90
46730;DHT22;32476;50.002;11.854;2024-03-07T02:03:25;-0.90;99.90
46730;DHT22;32476;50.002;11.854;2024-03-07T02:05:51;-0.90;99.90
46730;DHT22;32476;50.002;11.854;2024-03-07T02:08:19;-1.00;99.90
46730;DHT22;32476;50.002;11.854;2024-03-07T02:10:45;-1.00;99.90
46730;DHT22;32476;50.002;11.854;2024-03-07T02:13:11;-1.00;99.90
46730;DHT22;32476;50.002;11.854;2024-03-07T02:15:39;-1.00;99.90
46730;DHT22;32476;50.002;11.854;2024-03-07T02:18:05;-1.10;99.90
46730;DHT22;32476;50.002;11.854;2024-03-07T02:20:31;-1.00;99.90
46730;DHT22;32476;50.002;11.854;2024-03-07T02:23:00;-1.10;99.90
46730;DHT22;32476;50.002;11.854;2024-03-07T02:25:26;-1.10;99.90
46730;DHT22;32476;50.002;11.854;2024-03-07T02:27:53;-1.20;99.90
46730;DHT22;32476;50.002;11.854;2024-03-07T02:30:20;-1.20;99.90
46730;DHT22;32476;50.002;11.854;2024-03-07T02:32:47;-1.30;99.90
46730;DHT22;32476;50.002;11.854;2024-03-07T02:35:17;-1.30;99.90
46730;DHT22;32476;50.002;11.854;2024-03-07T02:37:45;-1.40;99.90
46730;DHT22;32476;50.002;11.854;2024-03-07T02:40:12;-1.40;99.90
46730;DHT22;32476;50.002;11.854;2024-03-07T02:42:39;-1.50;99.90
46730;DHT22;32476;50.002;11.854;2024-03-07T02:45:06;-1.50;99.90
46730;DHT22;32476;50.002;11.854;2024-03-07T02:47:33;-1.50;99.90
46730;DHT22;32476;50.002;11.854;2024-03-07T02:49:59;-1.50;99.90
46730;DHT22;32476;50.002;11.854;2024-03-07T02:52:26;-1.50;99.90
46730;DHT22;32476;50.002;11.854;2024-03-07T02:54:52;-1.60;99.90
46730;DHT22;32476;50.002;11.854;2024-03-07T02:57:18;-1.60;99.90
46730;DHT22;32476;50.002;11.854;2024-03-07T02:59:46;-1.60;99.90
46730;DHT22;32476;50.002;11.854;2024-03-07T03:02:11;-1.60;99.90
46730;DHT22;32476;50.002;11.854;2024-03-07T03:04:37;-1.50;99.90
46730;DHT22;32476;50.002;11.854;2024-03-07T03:07:05;-1.60;99.90
46730;DHT22;32476;50.002;11.854;2024-03-07T03:09:32;-1.60;99.90
46730;DHT22;32476;50.002;11.854;2024-03-07T03:11:59;-1.60;99.90
46730;DHT22;32476;50.002;11.854;2024-03-07T03:14:26;-1.60;99.90
46730;DHT22;32476;50.002;11.854;2024-03-07T03:16:53;-1.60;99.90
46730;DHT22;32476;50.002;11.854;2024-03-07T03:19:19;-1.60;99.90
46730;DHT22;32476;50.002;11.854;2024-03-07T03:21:46;-1.60;99.90
46730;DHT22;32476;50.002;11.854;2024-03-07T03:24:12;-1.60;99.90
46730;DHT22;32476;50.002;11.854;2024-03-07T03:26:38;-1.50;99.90
46730;DHT22;32476;50.002;11.854;2024-03-07T03:29:07;-1.40;99.90
46730;DHT22;32476;50.002;11.854;2024-03-07T03:31:35;-1.20;99.90
46730;DHT22;32476;50.002;11.854;2024-03-07T03:34:01;-0.90;99.90
46730;DHT22;32476;50.002;11.854;2024-03-07T03:36:29;-0.90;99.90
46730;DHT22;32476;50.002;11.854;2024-03-07T03:38:55;-0.80;99.90
46730;DHT22;32476;50.002;11.854;2024-03-07T03:41:21;-0.80;99.90
46730;DHT22;32476;50.002;11.854;2024-03-07T03:43:49;-0.70;99.90
46730;DHT22;32476;50.002;11.854;2024-03-07T03:46:15;-0.60;99.90
46730;DHT22;32476;50.002;11.854;2024-03-07T03:48:42;-0.60;99.90
46730;DHT22;32476;50.002;11.854;2024-03-07T03:51:10;-0.60;99.90
46730;DHT22;32476;50.002;11.854;2024-03-07T03:53:38;-0.50;99.90
46730;DHT22;32476;50.002;11.854;2024-03-07T03:56:04;-0.60;99.90
46730;DHT22;32476;50.002;11.854;2024-03-07T03:58:33;-0.50;99.90
46730;DHT22;32476;50.002;11.854;2024-03-07T04:01:00;-0.40;99.90
46730;DHT22;32476;50.002;11.854;2024-03-07T04:03:25;-0.40;99.90
46730;DHT22;32476;50.002;11.854;2024-03-07T04:05:53;-0.30;99.90
46730;DHT22;32476;50.002;11.854;2024-03-07T04:08:21;-0.20;99.90
46730;DHT22;32476;50.002;11.854;2024-03-07T04:10:47;-0.10;99.90
46730;DHT22;32476;50.002;11.854;2024-03-07T04:13:14;-0.10;99.90
46730;DHT22;32476;50.002;11.854;2024-03-07T04:15:40;-0.10;99.90
46730;DHT22;32476;50.002;11.854;2024-03-07T04:18:06;-0.10;99.90
46730;DHT22;32476;50.002;11.854;2024-03-07T04:20:34;0.00;99.90
46730;DHT22;32476;50.002;11.854;2024-03-07T04:23:00;0.00;99.90
46730;DHT22;32476;50.002;11.854;2024-03-07T04:25:27;0.10;99.90
46730;DHT22;32476;50.002;11.854;2024-03-07T04:27:55;0.10;99.90
46730;DHT22;32476;50.002;11.854;2024-03-07T04:30:21;0.10;99.90
46730;DHT22;32476;50.002;11.854;2024-03-07T04:32:48;0.10;99.90
46730;DHT22;32476;50.002;11.854;2024-03-07T04:35:15;0.10;99.90
46730;DHT22;32476;50.002;11.854;2024-03-07T04:37:41;0.10;99.90
46730;DHT22;32476;50.002;11.854;2024-03-07T04:40:09;0.10;99.90
46730;DHT22;32476;50.002;11.854;2024-03-07T04:42:47;0.20;99.90
46730;DHT22;32476;50.002;11.854;2024-03-07T04:45:15;0.20;99.90
46730;DHT22;32476;50.002;11.854;2024-03-07T04:47:42;0.10;99.90
46730;DHT22;32476;50.002;11.854;2024-03-07T04:50:10;0.10;99.90
46730;DHT22;32476;50.002;11.854;2024-03-07T04:52:37;0.20;99.90
46730;DHT22;32476;50.002;11.854;2024-03-07T04:55:05;0.20;99.90
46730;DHT22;32476;50.002;11.854;2024-03-07T04:57:38;0.20;99.90
46730;DHT22;32476;50.002;11.854;2024-03-07T05:00:07;0.20;99.90
46730;DHT22;32476;50.002;11.854;2024-03-07T05:02:44;0.20;99.90
46730;DHT22;32476;50.002;11.854;2024-03-07T05:05:11;0.20;99.90
46730;DHT22;32476;50.002;11.854;2024-03-07T05:07:38;0.20;99.90
46730;DHT22;32476;50.002;11.854;2024-03-07T05:10:07;0.10;99.90
46730;DHT22;32476;50.002;11.854;2024-03-07T05:12:34;0.10;99.90
46730;DHT22;32476;50.002;11.854;2024-03-07T05:15:00;0.10;99.90
46730;DHT22;32476;50.002;11.854;2024-03-07T05:17:27;0.20;99.90
46730;DHT22;32476;50.002;11.854;2024-03-07T05:19:54;0.20;99.90
46730;DHT22;32476;50.002;11.854;2024-03-07T05:22:20;0.20;99.90
46730;DHT22;32476;50.002;11.854;2024-03-07T05:24:52;0.30;99.90
46730;DHT22;32476;50.002;11.854;2024-03-07T05:27:18;0.30;99.90
46730;DHT22;32476;50.002;11.854;2024-03-07T05:29:44;0.30;99.90
46730;DHT22;32476;50.002;11.854;2024-03-07T05:32:23;0.30;99.90
46730;DHT22;32476;50.002;11.854;2024-03-07T05:34:49;0.40;99.90
46730;DHT22;32476;50.002;11.854;2024-03-07T05:37:17;0.40;99.90
46730;DHT22;32476;50.002;11.854;2024-03-07T05:39:43;0.40;99.90
46730;DHT22;32476;50.002;11.854;2024-03-07T05:42:09;0.40;99.90
46730;DHT22;32476;50.002;11.854;2024-03-07T05:44:41;0.40;99.90
46730;DHT22;32476;50.002;11.854;2024-03-07T05:47:08;0.40;99.90
46730;DHT22;32476;50.002;11.854;2024-03-07T05:49:35;0.50;99.90
46730;DHT22;32476;50.002;11.854;2024-03-07T05:52:04;0.50;99.90
46730;DHT22;32476;50.002;11.854;2024-03-07T05:54:32;0.50;99.90
46730;DHT22;32476;50.002;11.854;2024-03-07T05:56:58;0.50;99.90
46730;DHT22;32476;50.002;11.854;2024-03-07T05:59:26;0.50;99.90
46730;DHT22;32476;50.002;11.854;2024-03-07T06:01:54;0.50;99.90
46730;DHT22;32476;50.002;11.854;2024-03-07T06:04:21;0.50;99.90
46730;DHT22;32476;50.002;11.854;2024-03-07T06:06:49;0.60;99.90
46730;DHT22;32476;50.002;11.854;2024-03-07T06:09:15;0.60;99.90
46730;DHT22;32476;50.002;11.854;2024-03-07T06:11:52;0.60;99.90
46730;DHT22;32476;50.002;11.854;2024-03-07T06:14:20;0.60;99.90
46730;DHT22;32476;50.002;11.854;2024-03-07T06:16:48;0.70;99.90
46730;DHT22;32476;50.002;11.854;2024-03-07T06:19:13;0.70;99.90
46730;DHT22;32476;50.002;11.854;2024-03-07T06:21:40;0.70;99.90
46730;DHT22;32476;50.002;11.854;2024-03-07T06:24:08;0.70;99.90
46730;DHT22;32476;50.002;11.854;2024-03-07T06:26:37;0.70;99.90
46730;DHT22;32476;50.002;11.854;2024-03-07T06:29:17;0.80;99.90
46730;DHT22;32476;50.002;11.854;2024-03-07T06:31:44;0.80;99.90
46730;DHT22;32476;50.002;11.854;2024-03-07T06:34:15;0.90;99.90
46730;DHT22;32476;50.002;11.854;2024-03-07T06:36:42;0.90;99.90
46730;DHT22;32476;50.002;11.854;2024-03-07T06:39:08;1.00;99.90
46730;DHT22;32476;50.002;11.854;2024-03-07T06:41:39;1.00;99.90
46730;DHT22;32476;50.002;11.854;2024-03-07T06:44:05;1.00;99.90
46730;DHT22;32476;50.002;11.854;2024-03-07T06:46:32;1.00;99.90
46730;DHT22;32476;50.002;11.854;2024-03-07T06:49:01;1.00;99.90
46730;DHT22;32476;50.002;11.854;2024-03-07T06:51:27;1.00;99.90
46730;DHT22;32476;50.002;11.854;2024-03-07T06:53:53;1.00;99.90
46730;DHT22;32476;50.002;11.854;2024-03-07T06:56:21;1.00;99.90
46730;DHT22;32476;50.002;11.854;2024-03-07T06:58:49;1.00;99.90
46730;DHT22;32476;50.002;11.854;2024-03-07T07:01:14;1.00;99.90
46730;DHT22;32476;50.002;11.854;2024-03-07T07:03:42;1.00;99.90
46730;DHT22;32476;50.002;11.854;2024-03-07T07:06:12;1.00;99.90
46730;DHT22;32476;50.002;11.854;2024-03-07T07:08:38;1.00;99.90
46730;DHT22;32476;50.002;11.854;2024-03-07T07:11:06;0.90;99.90
46730;DHT22;32476;50.002;11.854;2024-03-07T07:13:32;1.00;99.90
46730;DHT22;32476;50.002;11.854;2024-03-07T07:15:58;1.00;99.90
46730;DHT22;32476;50.002;11.854;2024-03-07T07:18:26;1.00;99.90
46730;DHT22;32476;50.002;11.854;2024-03-07T07:20:52;1.00;99.90
46730;DHT22;32476;50.002;11.854;2024-03-07T07:23:19;1.10;99.90
46730;DHT22;32476;50.002;11.854;2024-03-07T07:25:47;1.10;99.90
46730;DHT22;32476;50.002;11.854;2024-03-07T07:28:13;1.10;99.90
46730;DHT22;32476;50.002;11.854;2024-03-07T07:30:41;1.10;99.90
46730;DHT22;32476;50.002;11.854;2024-03-07T07:33:09;1.10;99.90
46730;DHT22;32476;50.002;11.854;2024-03-07T07:35:35;1.10;99.90
46730;DHT22;32476;50.002;11.854;2024-03-07T07:38:01;1.20;99.90
46730;DHT22;32476;50.002;11.854;2024-03-07T07:40:28;1.30;99.90
46730;DHT22;32476;50.002;11.854;2024-03-07T07:42:59;1.30;99.90
46730;DHT22;32476;50.002;11.854;2024-03-07T07:45:28;1.30;99.90
46730;DHT22;32476;50.002;11.854;2024-03-07T07:47:54;1.30;99.90
46730;DHT22;32476;50.002;11.854;2024-03-07T07:50:22;1.50;99.90
46730;DHT22;32476;50.002;11.854;2024-03-07T07:52:55;1.60;99.90
46730;DHT22;32476;50.002;11.854;2024-03-07T07:55:24;1.70;99.90
46730;DHT22;32476;50.002;11.854;2024-03-07T07:57:57;1.70;99.90
46730;DHT22;32476;50.002;11.854;2024-03-07T08:00:25;1.80;99.90
46730;DHT22;32476;50.002;11.854;2024-03-07T08:03:04;1.90;99.90
46730;DHT22;32476;50.002;11.854;2024-03-07T08:05:35;1.90;99.90
46730;DHT22;32476;50.002;11.854;2024-03-07T08:08:05;1.90;99.90
46730;DHT22;32476;50.002;11.854;2024-03-07T08:10:36;1.90;99.90
46730;DHT22;32476;50.002;11.854;2024-03-07T08:13:05;2.00;99.90
46730;DHT22;32476;50.002;11.854;2024-03-07T08:15:36;2.20;99.90
46730;DHT22;32476;50.002;11.854;2024-03-07T08:18:02;2.40;99.90
46730;DHT22;32476;50.002;11.854;2024-03-07T08:20:35;2.40;99.90
46730;DHT22;32476;50.002;11.854;2024-03-07T08:23:01;2.40;99.90
46730;DHT22;32476;50.002;11.854;2024-03-07T08:25:28;2.40;99.90
46730;DHT22;32476;50.002;11.854;2024-03-07T08:27:57;2.60;99.90
46730;DHT22;32476;50.002;11.854;2024-03-07T08:30:25;2.80;99.90
46730;DHT22;32476;50.002;11.854;2024-03-07T08:32:57;2.90;99.90
46730;DHT22;32476;50.002;11.854;2024-03-07T08:35:25;2.80;99.90
46730;DHT22;32476;50.002;11.854;2024-03-07T08:37:53;2.90;99.90
46730;DHT22;32476;50.002;11.854;2024-03-07T08:40:20;2.90;99.90
46730;DHT22;32476;50.002;11.854;2024-03-07T08:42:51;2.80;99.90
46730;DHT22;32476;50.002;11.854;2024-03-07T08:45:18;2.80;99.90
46730;DHT22;32476;50.002;11.854;2024-03-07T08:47:46;2.90;99.90
46730;DHT22;32476;50.002;11.854;2024-03-07T08:50:15;2.90;99.90
46730;DHT22;32476;50.002;11.854;2024-03-07T08:52:44;3.00;99.90
46730;DHT22;32476;50.002;11.854;2024-03-07T08:55:22;3.10;99.90
46730;DHT22;32476;50.002;11.854;2024-03-07T08:57:52;3.10;99.90
46730;DHT22;32476;50.002;11.854;2024-03-07T09:00:19;3.20;99.90
46730;DHT22;32476;50.002;11.854;2024-03-07T09:02:55;3.10;99.90
46730;DHT22;32476;50.002;11.854;2024-03-07T09:05:25;3.00;99.90
46730;DHT22;32476;50.002;11.854;2024-03-07T09:07:54;2.90;99.90
46730;DHT22;32476;50.002;11.854;2024-03-07T09:10:20;3.00;99.90
46730;DHT22;32476;50.002;11.854;2024-03-07T09:12:50;2.80;99.90
46730;DHT22;32476;50.002;11.854;2024-03-07T09:15:19;2.90;99.90
46730;DHT22;32476;50.002;11.854;2024-03-07T09:17:47;2.80;99.90
46730;DHT22;32476;50.002;11.854;2024-03-07T09:20:13;2.60;99.90
46730;DHT22;32476;50.002;11.854;2024-03-07T09:22:44;2.80;99.90
46730;DHT22;32476;50.002;11.854;2024-03-07T09:25:10;2.90;99.90
46730;DHT22;32476;50.002;11.854;2024-03-07T09:27:38;3.00;99.90
46730;DHT22;32476;50.002;11.854;2024-03-07T09:30:08;3.10;99.90
46730;DHT22;32476;50.002;11.854;2024-03-07T09:32:41;3.20;99.90
46730;DHT22;32476;50.002;11.854;2024-03-07T09:35:09;3.10;99.90
46730;DHT22;32476;50.002;11.854;2024-03-07T09:37:43;3.10;99.90
46730;DHT22;32476;50.002;11.854;2024-03-07T09:40:11;3.30;99.90
46730;DHT22;32476;50.002;11.854;2024-03-07T09:45:14;3.40;99.90
46730;DHT22;32476;50.002;11.854;2024-03-07T09:47:49;3.30;99.90
46730;DHT22;32476;50.002;11.854;2024-03-07T09:50:20;3.40;99.90
46730;DHT22;32476;50.002;11.854;2024-03-07T09:52:50;3.20;99.90
46730;DHT22;32476;50.002;11.854;2024-03-07T09:55:19;2.90;99.90
46730;DHT22;32476;50.002;11.854;2024-03-07T09:57:47;3.10;99.90
46730;DHT22;32476;50.002;11.854;2024-03-07T10:00:17;3.20;99.90
46730;DHT22;32476;50.002;11.854;2024-03-07T10:02:58;3.30;99.90
46730;DHT22;32476;50.002;11.854;2024-03-07T10:05:28;3.20;99.90
46730;DHT22;32476;50.002;11.854;2024-03-07T10:07:56;3.10;99.90
46730;DHT22;32476;50.002;11.854;2024-03-07T10:10:23;3.10;99.90
46730;DHT22;32476;50.002;11.854;2024-03-07T10:12:49;3.10;99.90
46730;DHT22;32476;50.002;11.854;2024-03-07T10:15:19;3.10;99.90
46730;DHT22;32476;50.002;11.854;2024-03-07T10:17:45;3.20;99.90
46730;DHT22;32476;50.002;11.854;2024-03-07T10:20:18;3.30;99.90
46730;DHT22;32476;50.002;11.854;2024-03-07T10:22:48;3.20;99.90
46730;DHT22;32476;50.002;11.854;2024-03-07T10:25:18;3.40;99.90
46730;DHT22;32476;50.002;11.854;2024-03-07T10:27:51;3.20;99.90
46730;DHT22;32476;50.002;11.854;2024-03-07T10:30:17;3.30;99.90
46730;DHT22;32476;50.002;11.854;2024-03-07T10:32:55;3.40;99.90
46730;DHT22;32476;50.002;11.854;2024-03-07T10:35:24;3.50;99.90
46730;DHT22;32476;50.002;11.854;2024-03-07T10:37:55;3.40;99.90
46730;DHT22;32476;50.002;11.854;2024-03-07T10:40:24;3.50;99.90
46730;DHT22;32476;50.002;11.854;2024-03-07T10:42:57;3.70;99.90
46730;DHT22;32476;50.002;11.854;2024-03-07T10:45:29;3.90;99.90
46730;DHT22;32476;50.002;11.854;2024-03-07T10:47:57;3.90;99.90
46730;DHT22;32476;50.002;11.854;2024-03-07T10:53:31;4.10;99.90
46730;DHT22;32476;50.002;11.854;2024-03-07T10:59:20;4.20;99.90
46730;DHT22;32476;50.002;11.854;2024-03-07T11:04:40;4.20;99.90
46730;DHT22;32476;50.002;11.854;2024-03-07T11:07:09;4.00;99.90
46730;DHT22;32476;50.002;11.854;2024-03-07T11:09:51;3.70;99.90
46730;DHT22;32476;50.002;11.854;2024-03-07T11:12:25;3.80;99.90
46730;DHT22;32476;50.002;11.854;2024-03-07T11:14:56;3.80;99.90
46730;DHT22;32476;50.002;11.854;2024-03-07T11:17:23;3.80;99.90
46730;DHT22;32476;50.002;11.854;2024-03-07T11:19:49;3.60;99.90
46730;DHT22;32476;50.002;11.854;2024-03-07T11:22:33;3.70;99.90
46730;DHT22;32476;50.002;11.854;2024-03-07T11:25:04;3.60;99.90
46730;DHT22;32476;50.002;11.854;2024-03-07T11:27:38;3.50;99.90
46730;DHT22;32476;50.002;11.854;2024-03-07T11:30:10;3.60;99.90
46730;DHT22;32476;50.002;11.854;2024-03-07T11:32:38;3.60;99.90
46730;DHT22;32476;50.002;11.854;2024-03-07T11:35:33;3.40;99.90
46730;DHT22;32476;50.002;11.854;2024-03-07T11:38:06;3.30;99.90
46730;DHT22;32476;50.002;11.854;2024-03-07T11:43:07;3.20;99.90
46730;DHT22;32476;50.002;11.854;2024-03-07T11:45:33;3.40;99.90
46730;DHT22;32476;50.002;11.854;2024-03-07T11:48:04;3.50;99.90
46730;DHT22;32476;50.002;11.854;2024-03-07T11:50:40;3.70;99.90
46730;DHT22;32476;50.002;11.854;2024-03-07T11:53:07;4.00;99.90
46730;DHT22;32476;50.002;11.854;2024-03-07T11:55:38;4.30;99.90
46730;DHT22;32476;50.002;11.854;2024-03-07T11:58:19;4.60;99.90
46730;DHT22;32476;50.002;11.854;2024-03-07T12:00:51;4.80;99.90
46730;DHT22;32476;50.002;11.854;2024-03-07T12:03:21;5.00;99.90
46730;DHT22;32476;50.002;11.854;2024-03-07T12:05:50;4.70;99.90
46730;DHT22;32476;50.002;11.854;2024-03-07T12:08:18;4.70;99.90
46730;DHT22;32476;50.002;11.854;2024-03-07T12:10:48;4.70;99.90
46730;DHT22;32476;50.002;11.854;2024-03-07T12:13:19;4.10;99.90
46730;DHT22;32476;50.002;11.854;2024-03-07T12:15:45;4.30;99.90
46730;DHT22;32476;50.002;11.854;2024-03-07T12:18:12;4.30;99.90
46730;DHT22;32476;50.002;11.854;2024-03-07T12:20:41;4.40;99.90
46730;DHT22;32476;50.002;11.854;2024-03-07T12:23:12;4.10;99.90
46730;DHT22;32476;50.002;11.854;2024-03-07T12:25:39;4.40;99.90
46730;DHT22;32476;50.002;11.854;2024-03-07T12:28:08;4.40;99.90
46730;DHT22;32476;50.002;11.854;2024-03-07T12:33:13;4.40;99.90
46730;DHT22;32476;50.002;11.854;2024-03-07T12:35:49;4.50;99.90
46730;DHT22;32476;50.002;11.854;2024-03-07T12:38:19;4.70;99.90
46730;DHT22;32476;50.002;11.854;2024-03-07T12:41:04;4.80;99.90
46730;DHT22;32476;50.002;11.854;2024-03-07T12:43:34;5.00;99.90
46730;DHT22;32476;50.002;11.854;2024-03-07T12:46:05;4.70;99.90
46730;DHT22;32476;50.002;11.854;2024-03-07T12:48:31;4.70;99.90
46730;DHT22;32476;50.002;11.854;2024-03-07T12:50:58;4.90;99.90
46730;DHT22;32476;50.002;11.854;2024-03-07T12:53:25;4.70;99.90
46730;DHT22;32476;50.002;11.854;2024-03-07T12:55:52;4.90;99.90
46730;DHT22;32476;50.002;11.854;2024-03-07T12:58:20;4.90;99.90
46730;DHT22;32476;50.002;11.854;2024-03-07T13:00:52;5.10;99.90
46730;DHT22;32476;50.002;11.854;2024-03-07T13:03:20;5.00;99.90
46730;DHT22;32476;50.002;11.854;2024-03-07T13:05:46;5.00;99.90
46730;DHT22;32476;50.002;11.854;2024-03-07T13:08:12;5.10;99.90
46730;DHT22;32476;50.002;11.854;2024-03-07T13:10:43;5.30;99.90
46730;DHT22;32476;50.002;11.854;2024-03-07T13:13:10;5.80;99.90
46730;DHT22;32476;50.002;11.854;2024-03-07T13:15:40;5.70;99.90
46730;DHT22;32476;50.002;11.854;2024-03-07T13:18:09;5.60;99.90
46730;DHT22;32476;50.002;11.854;2024-03-07T13:20:35;5.40;99.90
46730;DHT22;32476;50.002;11.854;2024-03-07T13:23:02;5.70;99.90
46730;DHT22;32476;50.002;11.854;2024-03-07T13:25:30;5.90;99.90
46730;DHT22;32476;50.002;11.854;2024-03-07T13:28:11;5.80;99.90
46730;DHT22;32476;50.002;11.854;2024-03-07T13:30:51;6.10;99.90
46730;DHT22;32476;50.002;11.854;2024-03-07T13:33:20;6.90;99.90
46730;DHT22;32476;50.002;11.854;2024-03-07T13:35:46;6.90;99.90
46730;DHT22;32476;50.002;11.854;2024-03-07T13:38:14;6.90;99.90
46730;DHT22;32476;50.002;11.854;2024-03-07T13:40:48;7.10;99.90
46730;DHT22;32476;50.002;11.854;2024-03-07T13:43:16;7.00;99.90
46730;DHT22;32476;50.002;11.854;2024-03-07T13:45:43;6.70;99.90
46730;DHT22;32476;50.002;11.854;2024-03-07T13:48:10;6.30;99.90
46730;DHT22;32476;50.002;11.854;2024-03-07T13:50:42;5.80;99.90
46730;DHT22;32476;50.002;11.854;2024-03-07T13:53:12;5.90;99.90
46730;DHT22;32476;50.002;11.854;2024-03-07T14:01:34;5.40;99.90
46730;DHT22;32476;50.002;11.854;2024-03-07T14:10:37;5.10;99.90
46730;DHT22;32476;50.002;11.854;2024-03-07T14:17:11;5.00;99.90
46730;DHT22;32476;50.002;11.854;2024-03-07T14:23:10;4.90;99.90
46730;DHT22;32476;50.002;11.854;2024-03-07T14:26:00;4.80;99.90
46730;DHT22;32476;50.002;11.854;2024-03-07T14:31:07;4.90;99.90
46730;DHT22;32476;50.002;11.854;2024-03-07T14:36:53;4.80;99.90
46730;DHT22;32476;50.002;11.854;2024-03-07T14:39:31;4.60;99.90
46730;DHT22;32476;50.002;11.854;2024-03-07T14:42:05;4.60;99.90
46730;DHT22;32476;50.002;11.854;2024-03-07T14:44:43;4.50;99.90
46730;DHT22;32476;50.002;11.854;2024-03-07T14:47:12;4.50;99.90
46730;DHT22;32476;50.002;11.854;2024-03-07T14:49:41;4.20;99.90
46730;DHT22;32476;50.002;11.854;2024-03-07T14:52:08;4.20;99.90
46730;DHT22;32476;50.002;11.854;2024-03-07T14:54:37;4.30;99.90
46730;DHT22;32476;50.002;11.854;2024-03-07T14:57:05;4.30;99.90
46730;DHT22;32476;50.002;11.854;2024-03-07T14:59:36;4.30;99.90
46730;DHT22;32476;50.002;11.854;2024-03-07T15:02:02;4.30;99.90
46730;DHT22;32476;50.002;11.854;2024-03-07T15:04:32;4.30;99.90
46730;DHT22;32476;50.002;11.854;2024-03-07T15:06:59;4.30;99.90
46730;DHT22;32476;50.002;11.854;2024-03-07T15:09:28;4.10;99.90
46730;DHT22;32476;50.002;11.854;2024-03-07T15:11:57;4.20;99.90
46730;DHT22;32476;50.002;11.854;2024-03-07T15:14:23;4.10;99.90
46730;DHT22;32476;50.002;11.854;2024-03-07T15:16:49;3.90;99.90
46730;DHT22;32476;50.002;11.854;2024-03-07T15:19:16;4.00;99.90
46730;DHT22;32476;50.002;11.854;2024-03-07T15:21:43;3.90;99.90
46730;DHT22;32476;50.002;11.854;2024-03-07T15:24:09;3.80;99.90
46730;DHT22;32476;50.002;11.854;2024-03-07T15:26:38;3.70;99.90
46730;DHT22;32476;50.002;11.854;2024-03-07T15:29:04;3.60;99.90
46730;DHT22;32476;50.002;11.854;2024-03-07T15:31:30;3.60;99.90
46730;DHT22;32476;50.002;11.854;2024-03-07T15:33:58;3.60;99.90
46730;DHT22;32476;50.002;11.854;2024-03-07T15:36:24;3.60;99.90
46730;DHT22;32476;50.002;11.854;2024-03-07T15:38:51;3.40;99.90
46730;DHT22;32476;50.002;11.854;2024-03-07T15:41:18;3.40;99.90
46730;DHT22;32476;50.002;11.854;2024-03-07T15:43:45;3.40;99.90
46730;DHT22;32476;50.002;11.854;2024-03-07T15:46:11;3.40;99.90
46730;DHT22;32476;50.002;11.854;2024-03-07T15:48:51;3.50;99.90
46730;DHT22;32476;50.002;11.854;2024-03-07T15:51:16;3.50;99.90
46730;DHT22;32476;50.002;11.854;2024-03-07T15:53:44;3.50;99.90
46730;DHT22;32476;50.002;11.854;2024-03-07T15:56:10;3.40;99.90
46730;DHT22;32476;50.002;11.854;2024-03-07T15:58:36;3.30;99.90
46730;DHT22;32476;50.002;11.854;2024-03-07T16:01:05;3.20;99.90
46730;DHT22;32476;50.002;11.854;2024-03-07T16:03:31;3.10;99.90
46730;DHT22;32476;50.002;11.854;2024-03-07T16:05:57;3.20;99.90
46730;DHT22;32476;50.002;11.854;2024-03-07T16:08:24;3.10;99.90
46730;DHT22;32476;50.002;11.854;2024-03-07T16:10:51;3.00;99.90
46730;DHT22;32476;50.002;11.854;2024-03-07T16:13:18;2.90;99.90
46730;DHT22;32476;50.002;11.854;2024-03-07T16:15:46;2.70;99.90
46730;DHT22;32476;50.002;11.854;2024-03-07T16:18:12;2.60;99.90